Latest Weather Observations for Mildura

IDV60801

Issued at 2:31 am EDT Saturday 20 December 2014 (issued every 30 minutes, with the page automatically refreshed every 10 minutes)

About weather observations | Map of weather stations | Latest weather observations for VIC | Other Formats
Station Details ID: 076031 Name: MILDURA AIRPORT Lat: -34.24 Lon: 142.09 Height: 50.0 m
Data from the previous 72 hours. | See also: Recent months at Mildura
Date/Time
EDT
Temp
°C
App
Temp
°C
Dew
Point
Rel
Hum
%
Delta-T
°C
Wind Press
QNH
hPa
Press
MSL
hPa
Rain
since 9 am
mm
Dir
 
Spd
km/h
Gust
km/h
Spd
kts
Gust
kts
20/02:30am 17.4 13.7 4.4 42 6.1 SSW 13 20 7 11 1017.7 1017.5 0.0
20/02:00am 18.1 14.3 3.9 39 6.7 SSW 13 20 7 11 1018.0 1017.8 0.0
20/01:30am 18.6 14.7 3.3 36 7.2 SSW 13 17 7 9 1018.0 1017.8 0.0
20/01:00am 19.4 15.1 3.2 34 7.6 SSW 15 22 8 12 1018.1 1017.9 0.0
20/12:30am 19.6 15.7 3.3 34 7.7 SSW 13 20 7 11 1018.2 1018.0 0.0
20/12:00am 19.4 15.4 2.7 33 7.7 SSW 13 17 7 9 1018.2 1018.0 0.0
 
Date/Time
EDT
Temp
°C
App
Temp
°C
Dew
Point
Rel
Hum
%
Delta-T
°C
Wind Press
QNH
hPa
Press
MSL
hPa
Rain
since 9 am
mm
Dir
 
Spd
km/h
Gust
km/h
Spd
kts
Gust
kts
19/11:30pm 19.9 16.6 2.3 31 8.1 SSW 9 13 5 7 1018.2 1018.0 0.0
19/11:00pm 20.3 17.0 2.6 31 8.3 SSW 9 9 5 5 1018.2 1018.0 0.0
19/10:30pm 20.9 18.0 2.7 30 8.6 SSW 7 9 4 5 1018.0 1017.8 0.0
19/10:00pm 21.6 18.7 2.8 29 8.9 SSW 7 11 4 6 1017.7 1017.5 0.0
19/09:30pm 22.9 20.0 2.4 26 9.7 S 7 11 4 6 1017.4 1017.2 0.0
19/09:00pm 23.9 20.6 2.7 25 10.2 S 9 15 5 8 1017.3 1017.1 0.0
19/08:30pm 24.7 20.6 2.2 23 10.8 S 13 19 7 10 1017.2 1017.0 0.0
19/08:00pm 25.7 20.8 1.8 21 11.4 SSW 17 24 9 13 1017.0 1016.8 0.0
19/07:30pm 26.2 21.6 1.5 20 11.8 S 15 26 8 14 1016.5 1016.4 0.0
19/07:00pm 26.6 21.6 1.1 19 12.1 S 17 28 9 15 1016.4 1016.2 0.0
19/06:30pm 26.6 21.0 1.1 19 12.1 S 20 28 11 15 1016.2 1016.0 0.0
19/06:00pm 26.4 21.3 0.9 19 12.1 SW 17 32 9 17 1016.2 1016.0 0.0
19/05:30pm 26.3 21.1 0.1 18 12.2 SW 17 30 9 16 1016.3 1016.1 0.0
19/05:00pm 26.6 21.9 1.1 19 12.1 S 15 22 8 12 1016.5 1016.4 0.0
19/04:30pm 26.5 22.6 1.0 19 12.1 SSW 11 26 6 14 1016.9 1016.7 0.0
19/04:00pm 25.7 21.5 1.8 21 11.4 S 13 28 7 15 1017.1 1016.9 0.0
19/03:30pm 25.4 20.7 0.8 20 11.5 SSW 15 24 8 13 1017.5 1017.3 0.0
19/03:00pm 24.4 19.1 1.9 23 10.7 SW 19 30 10 16 1017.7 1017.5 0.0
19/02:30pm 23.8 18.8 1.4 23 10.5 SSW 17 32 9 17 1017.9 1017.7 0.0
19/02:00pm 23.5 18.9 1.8 24 10.2 S 15 26 8 14 1018.3 1018.1 0.0
19/01:30pm 22.7 18.4 1.1 24 10.0 SSW 13 24 7 13 1018.6 1018.4 0.0
19/01:00pm 22.3 18.6 2.4 27 9.4 SE 11 24 6 13 1018.9 1018.7 0.0
19/12:30pm 21.8 17.8 3.0 29 9.0 S 13 22 7 12 1019.0 1018.8 0.0
19/12:00pm 20.9 16.1 2.7 30 8.5 SSE 17 28 9 15 1019.0 1018.8 0.0
19/11:30am 20.1 15.7 2.5 31 8.2 SSE 15 26 8 14 1018.9 1018.7 0.0
19/11:00am 19.2 14.5 3.0 34 7.5 SSE 17 28 9 15 1019.1 1018.9 0.0
19/10:30am 18.8 13.8 3.4 36 7.2 S 19 30 10 16 1019.3 1019.1 0.0
19/10:00am 17.9 13.0 4.1 40 6.5 S 19 28 10 15 1019.3 1019.1 0.0
19/09:30am 17.5 13.2 5.1 44 6.0 SSE 17 22 9 12 1019.4 1019.2 0.0
19/09:00am 16.3 12.1 5.6 49 5.1 SSE 17 28 9 15 1019.6 1019.4 0.0
19/08:30am 15.2 11.8 6.0 54 4.4 S 13 20 7 11 1019.2 1019.0 0.0
19/08:00am 14.3 10.4 5.4 55 4.2 S 15 22 8 12 1019.0 1018.8 0.0
19/07:30am 13.0 9.9 5.4 60 3.6 S 11 19 6 10 1018.4 1018.2 0.0
19/07:00am 11.1 8.3 5.0 66 2.8 S 9 13 5 7 1017.8 1017.6 0.0
19/06:30am 10.4 7.9 4.8 68 2.5 SSW 7 11 4 6 1017.7 1017.5 0.0
19/05:30am 11.4 8.5 4.8 64 3.0 SSW 9 15 5 8 1017.0 1016.8 0.0
19/05:00am 11.8 8.9 4.5 61 3.3 SSW 9 11 5 6 1016.4 1016.2 0.0
19/04:30am 12.7 9.4 4.7 58 3.7 SSW 11 17 6 9 1016.0 1015.8 0.0
19/04:00am 13.2 9.1 4.6 56 4.0 SSW 15 24 8 13 1015.9 1015.7 0.0
19/03:30am 13.7 10.4 4.6 54 4.2 SSW 11 22 6 12 1015.9 1015.7 0.0
19/03:00am 14.3 11.0 4.3 51 4.6 SW 11 20 6 11 1015.8 1015.6 0.0
19/02:30am 14.9 11.2 4.3 49 4.9 SSW 13 20 7 11 1015.7 1015.5 0.0
19/02:00am 15.5 11.8 4.2 47 5.2 SW 13 22 7 12 1015.7 1015.5 0.0
19/01:30am 16.1 12.8 4.5 46 5.5 SSW 11 20 6 11 1015.8 1015.6 0.0
19/01:00am 16.7 13.0 4.4 44 5.8 SSW 13 20 7 11 1015.6 1015.4 0.0
19/12:30am 17.7 11.9 4.6 42 6.2 SSW 24 35 13 19 1015.5 1015.3 0.0
19/12:00am 18.6 13.8 4.4 39 6.8 S 19 30 10 16 1015.1 1014.9 0.0
 
Date/Time
EDT
Temp
°C
App
Temp
°C
Dew
Point
Rel
Hum
%
Delta-T
°C
Wind Press
QNH
hPa
Press
MSL
hPa
Rain
since 9 am
mm
Dir
 
Spd
km/h
Gust
km/h
Spd
kts
Gust
kts
18/11:30pm 19.5 14.5 4.4 37 7.3 SSW 20 32 11 17 1014.7 1014.5 0.0
18/11:00pm 19.9 14.6 4.8 37 7.3 SSW 22 37 12 20 1014.5 1014.3 0.0
18/10:30pm 20.4 15.1 4.8 36 7.6 SSW 22 35 12 19 1014.1 1013.9 0.0
18/10:00pm 21.0 16.0 4.6 34 8.0 SSW 20 28 11 15 1013.7 1013.5 0.0
18/09:30pm 21.4 17.0 4.9 34 8.1 SSW 17 28 9 15 1013.2 1013.0 0.0
18/09:00pm 22.0 17.3 5.0 33 8.4 SSW 19 28 10 15 1012.8 1012.6 0.0
18/08:30pm 22.8 17.5 4.8 31 8.9 SW 22 41 12 22 1012.4 1012.2 0.0
18/08:00pm 24.1 18.7 4.5 28 9.8 SSW 22 43 12 23 1012.0 1011.8 0.0
18/07:30pm 24.8 18.5 5.6 29 9.8 SW 28 46 15 25 1011.3 1011.1 0.0
18/07:23pm 24.8 18.6 6.1 30 9.6 SW 28 46 15 25 1011.2 1011.0 0.0
18/07:00pm 26.0 21.0 6.6 29 10.2 SW 22 39 12 21 1010.6 1010.4 0.0
18/06:30pm 26.4 20.1 5.9 27 10.6 SW 28 39 15 21 1010.0 1009.8 0.0
18/06:08pm 27.0 20.4 4.1 23 11.5 SW 28 46 15 25 1009.6 1009.4 0.0
18/06:00pm 26.9 21.1 4.6 24 11.3 WSW 24 41 13 22 1009.6 1009.4 0.0
18/05:42pm 26.4 19.8 4.2 24 11.2 WSW 28 46 15 25 1009.5 1009.3 0.0
18/05:30pm 27.5 21.3 4.5 23 11.7 WSW 26 43 14 23 1009.5 1009.3 0.0
18/05:22pm 26.6 20.2 5.0 25 11.0 WSW 28 50 15 27 1009.6 1009.4 0.0
18/05:00pm 28.0 22.4 5.6 24 11.7 WSW 24 39 13 21 1009.4 1009.2 0.0
18/04:30pm 27.9 21.6 5.5 24 11.6 SSW 28 46 15 25 1009.2 1009.0 0.0
18/04:26pm 27.8 21.4 5.4 24 11.6 SW 28 46 15 25 1009.1 1008.9 0.0
18/04:00pm 27.9 21.4 2.9 20 12.4 WSW 26 39 14 21 1009.2 1009.0 0.0
18/03:32pm 27.8 20.6 2.8 20 12.4 WSW 30 48 16 26 1009.2 1009.0 0.0
18/03:30pm 27.5 20.7 3.2 21 12.1 WSW 28 44 15 24 1009.2 1009.0 0.0
18/03:01pm 26.8 20.0 3.3 22 11.7 WSW 28 46 15 25 1009.2 1009.0 0.0
18/03:00pm 27.3 21.0 3.7 22 11.8 WSW 26 46 14 25 1009.2 1009.0 0.0
18/02:32pm 27.3 21.1 6.1 26 11.1 WSW 28 46 15 25 1009.2 1009.0 0.0
18/02:30pm 26.1 20.2 5.7 27 10.5 WSW 26 46 14 25 1009.4 1009.2 0.0
18/02:00pm 25.7 19.4 5.8 28 10.3 WSW 28 50 15 27 1009.5 1009.3 0.0
18/01:33pm 26.7 20.4 5.6 26 10.9 WSW 28 48 15 26 1009.6 1009.4 0.0
18/01:30pm 26.2 19.4 5.2 26 10.7 WSW 30 48 16 26 1009.6 1009.4 0.0
18/01:00pm 26.2 20.3 5.7 27 10.6 W 26 39 14 21 1009.7 1009.5 0.0
18/12:30pm 25.6 21.1 6.3 29 10.0 W 19 33 10 18 1009.8 1009.6 0.0
18/12:00pm 25.1 20.5 5.8 29 9.9 W 19 32 10 17 1010.1 1009.9 0.0
18/11:30am 24.3 19.4 5.1 29 9.7 W 20 28 11 15 1010.1 1009.9 0.0
18/11:00am 23.9 19.2 5.3 30 9.4 WSW 19 28 10 15 1010.2 1010.0 0.0
18/10:30am 22.2 17.9 5.2 33 8.5 WSW 17 30 9 16 1010.2 1010.0 0.0
18/10:00am 21.6 17.6 4.7 33 8.3 SW 15 22 8 12 1010.2 1010.0 0.0
18/09:30am 20.7 15.8 4.3 34 7.9 SW 19 30 10 16 1010.3 1010.1 0.0
18/09:00am 19.7 15.6 4.2 36 7.5 SSW 15 24 8 13 1010.0 1009.8 0.0
18/08:30am 18.3 14.0 3.4 37 7.0 SSW 15 20 8 11 1009.7 1009.5 0.0
18/08:00am 17.0 13.2 3.7 41 6.2 S 13 19 7 10 1009.1 1008.9 0.0
18/07:30am 15.5 11.9 3.0 43 5.7 S 11 17 6 9 1008.4 1008.2 0.0
18/07:00am 13.7 10.3 2.0 45 5.1 SSW 9 13 5 7 1008.2 1008.0 0.0
18/06:30am 12.9 9.9 1.9 47 4.8 SSW 7 11 4 6 1007.8 1007.6 0.0
18/06:00am 14.0 10.6 2.0 44 5.3 S 9 15 5 8 1007.4 1007.2 0.0
18/05:30am 14.5 11.1 1.8 42 5.6 S 9 13 5 7 1007.2 1007.0 0.0
18/05:00am 14.7 10.9 1.6 41 5.7 SSW 11 17 6 9 1007.0 1006.8 0.0
18/04:30am 15.0 10.7 0.8 38 6.1 SSW 13 17 7 9 1006.9 1006.7 0.0
18/04:00am 15.3 10.9 0.3 36 6.4 SSW 13 19 7 10 1006.6 1006.4 0.0
18/03:30am 15.0 10.5 -0.3 35 6.4 SW 13 20 7 11 1006.4 1006.2 0.0
18/03:00am 14.0 12.0 -0.4 37 6.0 CALM 0 0 0 0 1006.0 1005.8 0.0
18/02:30am 15.0 12.7 0.1 36 6.3 NW 2 7 1 4 1006.3 1006.1 0.0
18/02:00am 15.0 12.3 0.1 36 6.3 WSW 4 7 2 4 1006.6 1006.4 0.0
18/01:30am 15.3 12.1 -0.4 34 6.6 WSW 6 7 3 4 1006.8 1006.6 0.0
18/01:00am 15.8 12.5 0.0 34 6.8 SW 7 7 4 4 1007.0 1006.8 0.0
18/12:30am 16.9 13.7 -0.3 31 7.4 WSW 6 7 3 4 1007.0 1006.8 0.0
18/12:00am 17.7 13.9 -0.5 29 7.8 SW 9 9 5 5 1007.2 1007.0 0.0
 
Date/Time
EDT
Temp
°C
App
Temp
°C
Dew
Point
Rel
Hum
%
Delta-T
°C
Wind Press
QNH
hPa
Press
MSL
hPa
Rain
since 9 am
mm
Dir
 
Spd
km/h
Gust
km/h
Spd
kts
Gust
kts
17/11:30pm 18.3 14.5 -0.5 28 8.1 W 9 11 5 6 1007.3 1007.1 0.0
17/11:00pm 19.2 15.4 -0.7 26 8.6 WNW 9 9 5 5 1007.2 1007.0 0.0
17/10:30pm 19.7 16.3 -0.9 25 8.9 WNW 7 9 4 5 1006.8 1006.6 0.0
17/10:00pm 20.7 16.9 -0.6 24 9.4 WNW 9 11 5 6 1006.7 1006.5 0.0
17/09:30pm 20.8 17.4 -0.5 24 9.4 W 7 9 4 5 1006.6 1006.4 0.0
17/09:00pm 22.5 18.8 -0.3 22 10.3 W 9 11 5 6 1006.8 1006.6 0.0
17/08:30pm 23.6 20.3 0.0 21 10.8 W 7 11 4 6 1006.6 1006.4 0.0
17/08:00pm 24.8 21.0 -1.1 18 11.7 W 9 15 5 8 1006.7 1006.5 0.0
17/07:30pm 25.5 21.0 -3.0 15 12.5 W 11 19 6 10 1006.8 1006.6 0.0
17/07:00pm 26.5 21.6 -3.1 14 13.1 W 13 20 7 11 1006.5 1006.3 0.0
17/06:30pm 26.4 21.9 -3.2 14 13.0 WSW 11 20 6 11 1006.5 1006.3 0.0
17/06:00pm 25.8 21.2 -3.7 14 12.8 NW 11 20 6 11 1006.3 1006.1 0.0
17/05:30pm 26.1 21.6 -3.5 14 12.9 WSW 11 22 6 12 1006.6 1006.4 0.0
17/05:00pm 25.8 21.4 -2.8 15 12.6 W 11 20 6 11 1006.7 1006.5 0.0
17/04:30pm 25.9 21.1 -2.7 15 12.6 WNW 13 24 7 13 1006.8 1006.6 0.0
17/04:00pm 25.3 20.5 -2.3 16 12.3 W 13 20 7 11 1007.1 1006.9 0.0
17/03:30pm 24.8 20.5 -1.9 17 11.9 WSW 11 20 6 11 1007.4 1007.2 0.0
17/03:00pm 24.0 20.4 -1.8 18 11.4 NNW 7 15 4 8 1007.8 1007.6 0.0
17/02:30pm 24.3 20.8 -1.5 18 11.5 SSW 7 13 4 7 1008.3 1008.1 0.0
17/02:00pm 23.4 19.7 -0.1 21 10.7 ESE 9 17 5 9 1008.5 1008.3 0.0
17/01:30pm 22.7 18.8 -1.4 20 10.6 SSE 9 19 5 10 1009.1 1008.9 0.0
17/01:00pm 22.2 17.2 -1.1 21 10.3 SSE 15 24 8 13 1009.4 1009.2 0.0
17/12:30pm 21.2 17.1 -0.1 24 9.5 W 11 20 6 11 1009.8 1009.6 0.0
17/12:00pm 20.7 17.1 0.5 26 9.1 SSE 9 20 5 11 1009.9 1009.7 0.0
17/11:30am 20.2 16.7 1.1 28 8.7 SSE 9 17 5 9 1010.1 1009.9 0.0
17/11:00am 19.0 14.9 2.0 32 7.8 S 13 20 7 11 1010.5 1010.3 0.0
17/10:30am 18.4 14.3 2.3 34 7.4 SSW 13 17 7 9 1010.6 1010.4 0.0
17/10:00am 17.9 13.9 2.6 36 7.0 SSE 13 20 7 11 1010.7 1010.5 0.0
17/09:30am 17.2 13.8 3.8 41 6.3 S 11 20 6 11 1011.1 1010.9 0.0
17/09:00am 16.6 12.5 4.3 44 5.8 SSE 15 22 8 12 1011.0 1010.8 0.0
17/08:30am 15.4 11.9 5.3 51 4.8 S 13 19 7 10 1011.1 1010.9 0.0
17/08:00am 14.3 10.9 5.7 56 4.1 S 13 19 7 10 1011.0 1010.8 0.0
17/07:30am 12.7 9.6 5.6 62 3.3 SSW 11 17 6 9 1010.6 1010.4 0.0
17/07:00am 11.2 8.8 5.1 66 2.8 SW 7 9 4 5 1010.2 1010.0 0.0
17/06:30am 10.2 7.7 5.0 70 2.4 SW 7 9 4 5 1009.6 1009.4 0.0
17/06:00am 10.3 7.8 4.9 69 2.4 SSW 7 9 4 5 1009.1 1008.9 0.0
17/05:30am 11.2 8.8 5.1 66 2.8 S 7 9 4 5 1008.5 1008.3 0.0
17/05:00am 11.8 9.4 5.2 64 3.1 S 7 11 4 6 1008.5 1008.3 0.0
17/04:30am 12.4 9.6 5.1 61 3.4 S 9 13 5 7 1008.5 1008.3 0.0
17/04:00am 12.9 10.0 4.8 58 3.7 SSW 9 15 5 8 1008.5 1008.3 0.0
17/03:30am 13.7 10.1 5.1 56 4.0 SSW 13 20 7 11 1008.4 1008.2 0.0
17/03:00am 14.2 10.6 4.8 53 4.4 S 13 20 7 11 1008.1 1007.9 0.0

Other Formats:

Comma delimited format used in spreadsheet applications
http://www.bom.gov.au/fwo/IDV60801/IDV60801.94693.axf

JavaScript Object Notation format (JSON) in row-major order
http://www.bom.gov.au/fwo/IDV60801/IDV60801.94693.json